• Join FlightAware (Why Join?)
  • Login
  • US Flag 
06:16PM EST


 

Airport Tracker/Info


-or-


 

Live Flight TrackerFlight Track Log ✈ AAL2375 ✈ 01-Aug-2014 ✈ KDFW - KTPA

Flight Track Log - Related Links

Times and Time Zones

All times are in EDT time to prevent confusion due to time zone crossing. See the AAL2375 flight status page for this flight to view local times or setup timezone preferences in your user account.

Time Position Orientation Groundspeed Altitude Reporting Facility
EDT Latitude Longitude Course Direction KTS MPH feet Rate Location/Type
04:09PM 32.9167 -97.0333 16° North 158 182 1,100  Level Dallas / Fort Worth TRACON
04:10PM 32.9667 -97.0167 16° North 218 251 2,900 1,680 Climbing Dallas / Fort Worth TRACON
04:12PM 33.0167 -96.9442 51° Northeast 255 293 5,400 2,040 Climbing Fort Worth Center
04:13PM 33.0017 -96.8550 101° East 268 308 7,700 2,220 Climbing Fort Worth Center
04:14PM 32.9761 -96.7564 107° East 286 329 10,100 1,920 Climbing Fort Worth Center
04:15PM 32.9497 -96.6572 108° East 316 364 11,700 1,380 Climbing Fort Worth Center
04:16PM 32.9172 -96.5308 107° East 384 442 13,000 1,740 Climbing Fort Worth Center
04:21PM 32.8757 -95.7338 88° East 479 551 23,500 1,800 Climbing FlightAware ADS-B (KHOU)
04:22PM 32.8772 -95.6320 89° East 483 556 24,300 900 Climbing FlightAware ADS-B (KHOU)
04:25PM 32.9231 -95.0911 79° East 496 571 27,000 660 Climbing FlightAware ADS-B (KHOU)
04:26PM 32.9335 -95.0222 79° East 496 571 27,000  Level FlightAware ADS-B (KHOU)
04:27PM 32.9586 -94.8531 80° East 495 570 27,000  Level FlightAware ADS-B (KHOU)
04:27PM 32.9683 -94.7872 80° East 495 570 27,000  Level FlightAware ADS-B (KHOU)
04:28PM 32.9913 -94.6322 81° East 495 570 27,000  Level FlightAware ADS-B (KDTN)
04:28PM 32.9987 -94.5823 80° East 495 570 27,000  Level FlightAware ADS-B (KHOU)
04:29PM 33.0041 -94.5459 80° East 497 572 27,000  Level FlightAware ADS-B (KDTN)
04:29PM 33.0197 -94.4406 80° East 499 574 27,000  Level FlightAware ADS-B (KDTN)
04:29PM 33.0227 -94.4200 80° East 498 573 27,000  Level FlightAware ADS-B (KHOU)
04:30PM 33.0319 -94.3570 80° East 499 574 27,000  Level FlightAware ADS-B (KDTN)
04:30PM 33.0422 -94.2867 80° East 499 574 27,000  Level FlightAware ADS-B (KDTN)
04:31PM 33.0553 -94.1959 80° East 500 575 27,000  Level FlightAware ADS-B (KDTN)
04:31PM 33.0671 -94.1137 80° East 500 575 27,000  Level FlightAware ADS-B (KDTN)
04:31PM 33.0676 -94.1102 80° East 500 575 27,000  Level FlightAware ADS-B (KHOU)
04:32PM 33.0788 -94.0327 80° East 500 575 27,000  Level FlightAware ADS-B (KDTN)
04:32PM 33.0784 -94.0353 80° East 500 575 27,000  Level FlightAware ADS-B (KHOU)
04:32PM 33.0905 -93.9503 81° East 503 579 27,000  Level FlightAware ADS-B (KDTN)
04:33PM 33.0945 -93.8686 91° East 506 582 27,000  Level FlightAware ADS-B (KDTN)
04:33PM 33.0876 -93.7866 98° East 505 581 27,000  Level FlightAware ADS-B (KDTN)
04:34PM 33.0747 -93.6828 98° East 506 582 27,000  Level FlightAware ADS-B (KDTN)
04:35PM 33.0634 -93.5919 98° East 506 582 27,000  Level FlightAware ADS-B (KDTN)
04:35PM 33.0501 -93.4852 98° East 506 582 27,000  Level FlightAware ADS-B (KDTN)
04:36PM 33.0364 -93.3757 98° East 507 583 27,000  Level FlightAware ADS-B (KDTN)
04:37PM 33.0245 -93.2813 99° East 508 585 27,000  Level FlightAware ADS-B (KDTN)
04:37PM 33.0091 -93.1599 99° East 508 585 27,000  Level FlightAware ADS-B (KDTN)
04:38PM 32.9990 -93.0808 99° East 507 583 27,000  Level FlightAware ADS-B (KDTN)
04:38PM 32.9851 -92.9723 99° East 506 582 27,000  Level FlightAware ADS-B (KDTN)
04:39PM 32.9603 -92.7903 99° East 504 580 27,000  Level Memphis Center
04:40PM 32.9400 -92.6253 98° East 504 580 27,000  Level Memphis Center
04:42PM 32.9164 -92.4617 100° East 504 580 27,000  Level Memphis Center
04:43PM 32.8953 -92.2964 99° East 504 580 27,000  Level Memphis Center
04:44PM 32.8725 -92.1331 99° East 504 580 27,000  Level Memphis Center
04:45PM 32.8497 -91.9469 98° East 504 580 27,000  Level Memphis Center
04:46PM 32.8283 -91.7842 99° East 504 580 27,000  Level Memphis Center
04:47PM 32.8025 -91.6222 101° East 504 580 27,000  Level Memphis Center
04:48PM 32.7819 -91.4578 98° East 504 580 27,000  Level Memphis Center
04:49PM 32.7517 -91.2603 100° East 506 582 27,000  Level Memphis Center
04:50PM 32.7303 -91.0967 99° East 507 583 27,000  Level Memphis Center
04:51PM 32.7061 -90.9314 100° East 507 583 27,000  Level Memphis Center
04:52PM 32.6811 -90.7678 100° East 508 585 27,000  Level Memphis Center
04:53PM 32.6528 -90.5744 100° East 505 581 27,000  Level Memphis Center
04:54PM 32.6286 -90.4114 100° East 506 582 27,000  Level Memphis Center
04:55PM 32.6044 -90.2511 100° East 505 581 27,000 480 Level Memphis Center
04:56PM 32.5800 -90.0894 100° East 505 581 28,000 1,380 Climbing Memphis Center
04:58PM 32.5258 -89.7314 100° East 510 587 31,300 1,560 Climbing Memphis Center
04:59PM 32.5000 -89.5708 101° East 509 586 33,000 780 Climbing Memphis Center
05:00PM 32.4767 -89.4128 100° East 500 575 33,000  Level Memphis Center
05:01PM 32.4517 -89.2539 101° East 499 574 33,000  Level Memphis Center
05:02PM 32.4211 -89.0653 101° East 497 572 33,000  Level Memphis Center
05:03PM 32.4033 -88.9061 97° East 494 568 33,000  Level Memphis Center
05:04PM 32.3858 -88.7478 97° East 494 568 33,000  Level Memphis Center
05:05PM 32.3692 -88.5894 97° East 492 566 33,000  Level Memphis Center
05:06PM 32.3533 -88.4186 96° East 490 564 33,000  Level Memphis Center
05:07PM 32.3211 -88.2644 104° East 489 563 33,000  Level Memphis Center
05:08PM 32.2308 -88.1464 132° Southeast 487 560 33,000  Level Memphis Center
05:09PM 32.1097 -88.0236 139° Southeast 480 552 33,000  Level Memphis Center
05:10PM 32.0067 -87.9181 139° Southeast 484 557 33,000  Level Memphis Center
05:12PM 31.9050 -87.8147 139° Southeast 484 557 33,000  Level Memphis Center
05:13PM 31.8339 -87.6786 122° Southeast 491 565 33,000  Level Memphis Center
05:14PM 31.7731 -87.5075 113° Southeast 476 548 33,000 -480 Level Atlanta Center
05:21PM 31.2628 -86.4706 132° Southeast 483 556 29,000 -480 Descending FlightAware ADS-B (KHRT)
05:22PM 31.1570 -86.3365 133° Southeast 459 528 29,000  Level FlightAware ADS-B (KHRT)
05:24PM 31.0461 -86.2022 133° Southeast 452 520 29,000 -360 Level Jacksonville Center
05:25PM 30.9633 -86.0928 131° Southeast 452 520 28,200 -900 Descending Jacksonville Center
05:26PM 30.8844 -85.9908 132° Southeast 439 505 27,200 -600 Descending Jacksonville Center
05:27PM 30.8053 -85.8917 133° Southeast 426 490 27,000 -120 Descending Jacksonville Center
05:28PM 30.7222 -85.7900 134° Southeast 421 484 27,000  Level Jacksonville Center
05:29PM 30.6408 -85.6861 132° Southeast 433 498 27,000  Level Jacksonville Center
05:30PM 30.5575 -85.5822 133° Southeast 433 498 27,000  Level Jacksonville Center
05:31PM 30.4742 -85.4764 132° Southeast 433 498 27,000  Level Jacksonville Center
05:32PM 30.3906 -85.3731 133° Southeast 433 498 27,000  Level Jacksonville Center
05:33PM 30.3050 -85.2697 134° Southeast 433 498 27,000 -60 Level Jacksonville Center
05:34PM 30.2192 -85.1642 133° Southeast 438 504 26,900 -480 Descending Jacksonville Center
05:35PM 30.1436 -85.0689 133° Southeast 438 504 26,100 -900 Descending Jacksonville Center
05:36PM 30.0575 -84.9661 134° Southeast 438 504 25,100 -600 Descending Jacksonville Center
05:37PM 29.9736 -84.8636 133° Southeast 432 497 25,000 -60 Descending Jacksonville Center
05:38PM 29.8958 -84.7614 131° Southeast 432 497 25,000  Level Jacksonville Center
05:39PM 29.8075 -84.6592 135° Southeast 432 497 25,000  Level Jacksonville Center
05:40PM 29.7275 -84.5594 133° Southeast 432 497 25,000  Level Jacksonville Center
05:41PM 29.6328 -84.4506 135° Southeast 432 497 25,000  Level Jacksonville Center
05:42PM 29.5483 -84.3464 133° Southeast 432 497 25,000 -60 Level Jacksonville Center
05:43PM 29.4619 -84.2450 134° Southeast 437 503 24,900  Descending Jacksonville Center
05:44PM 29.3794 -84.1414 132° Southeast 432 497 25,000  Climbing Jacksonville Center
05:45PM 29.2947 -84.0428 135° Southeast 432 497 24,900 -60 Descending Jacksonville Center
05:46PM 29.2122 -83.9417 133° Southeast 432 497 24,900  Level Jacksonville Center
05:47PM 29.1253 -83.8386 134° Southeast 432 497 25,000  Climbing Jacksonville Center
05:48PM 29.0425 -83.7406 134° Southeast 432 497 24,900  Descending Jacksonville Center
05:49PM 28.9594 -83.6400 133° Southeast 432 497 25,000  Climbing Jacksonville Center
05:50PM 28.8786 -83.5422 133° Southeast 432 497 25,000 -660 Level Jacksonville Center
05:51PM 28.7936 -83.4447 135° Southeast 432 497 23,700 -1,800 Descending Jacksonville Center
05:52PM 28.7189 -83.3542 133° Southeast 441 507 21,400 -2,280 Descending Jacksonville Center
05:53PM 28.6397 -83.2639 135° Southeast 423 487 19,200 -2,040 Descending Jacksonville Center
05:55PM 28.4753 -83.0681 134° Southeast 376 433 14,800 -1,740 Descending Miami Center
05:56PM 28.4000 -83.0000 142° Southeast 366 421 13,900 -1,080 Descending Tampa TRACON
05:57PM 28.3167 -82.9167 139° Southeast 362 417 12,900 -1,440 Descending Tampa TRACON
05:58PM 28.2500 -82.8500 139° Southeast 356 410 11,200 -1,380 Descending Tampa TRACON
05:59PM 28.1833 -82.7833 139° Southeast 324 373 10,300 -900 Descending Tampa TRACON
06:00PM 28.1167 -82.7167 139° Southeast 279 321 9,400 -1,140 Descending Tampa TRACON
06:01PM 28.0500 -82.6667 146° Southeast 286 329 8,100 -1,440 Descending Tampa TRACON
06:02PM 28.0000 -82.6167 139° Southeast 287 330 6,700 -1,440 Descending Tampa TRACON
06:03PM 27.9167 -82.6167 180° South 273 314 5,100 -960 Descending Tampa TRACON
06:04PM 27.8500 -82.6167 180° South 254 292 4,800 -660 Descending Tampa TRACON
06:05PM 27.7833 -82.6000 168° South 226 260 3,800 -960 Descending Tampa TRACON
06:06PM 27.7833 -82.5500 90° East 220 253 2,900 -660 Descending Tampa TRACON
06:07PM 27.8500 -82.5500 360° North 195 224 2,600 -600 Descending Tampa TRACON
06:08PM 27.9000 -82.5500 360° North 154 177 1,700 -1,080 Descending Tampa TRACON
06:09PM 27.9333 -82.5500 360° North 141 162 500 -1,200 Descending Tampa TRACON